sensor_id;sensor_type;location;lat;lon;timestamp;pressure;altitude;pressure_sealevel;temperature;humidity
81232;BME280;70703;55.652;37.710;2023-11-21T00:00:12;99727.91;;;-4.98;53.60
81232;BME280;70703;55.652;37.710;2023-11-21T00:00:26;99730.50;;;-4.98;53.47
81232;BME280;70703;55.652;37.710;2023-11-21T00:00:38;99722.03;;;-5.02;53.76
81232;BME280;70703;55.652;37.710;2023-11-21T00:00:50;99729.59;;;-4.97;54.23
81232;BME280;70703;55.652;37.710;2023-11-21T00:01:02;99713.38;;;-5.02;53.61
81232;BME280;70703;55.652;37.710;2023-11-21T00:01:16;99726.06;;;-4.96;53.83
81232;BME280;70703;55.652;37.710;2023-11-21T00:01:28;99723.63;;;-4.99;53.73
81232;BME280;70703;55.652;37.710;2023-11-21T00:01:41;99680.50;;;-5.35;54.04
81232;BME280;70703;55.652;37.710;2023-11-21T00:01:53;99728.66;;;-4.96;53.85
81232;BME280;70703;55.652;37.710;2023-11-21T00:02:04;99726.25;;;-4.99;53.68
81232;BME280;70703;55.652;37.710;2023-11-21T00:02:17;99729.69;;;-4.98;54.00
81232;BME280;70703;55.652;37.710;2023-11-21T00:02:30;99728.84;;;-4.99;53.71
81232;BME280;70703;55.652;37.710;2023-11-21T00:02:43;99733.03;;;-4.96;53.89
81232;BME280;70703;55.652;37.710;2023-11-21T00:02:59;99716.91;;;-5.03;53.97
81232;BME280;70703;55.652;37.710;2023-11-21T00:03:11;99731.19;;;-4.94;53.87
81232;BME280;70703;55.652;37.710;2023-11-21T00:03:27;99728.50;;;-4.93;54.05
81232;BME280;70703;55.652;37.710;2023-11-21T00:03:40;99719.91;;;-4.95;54.27
81232;BME280;70703;55.652;37.710;2023-11-21T00:03:52;99716.38;;;-4.94;54.27
81232;BME280;70703;55.652;37.710;2023-11-21T00:04:07;99722.44;;;-4.93;54.00
81232;BME280;70703;55.652;37.710;2023-11-21T00:04:19;99721.50;;;-4.92;54.01
81232;BME280;70703;55.652;37.710;2023-11-21T00:04:31;99721.59;;;-4.94;53.89
81232;BME280;70703;55.652;37.710;2023-11-21T00:04:43;99723.47;;;-4.96;54.27
81232;BME280;70703;55.652;37.710;2023-11-21T00:04:55;99720.84;;;-4.96;54.11
81232;BME280;70703;55.652;37.710;2023-11-21T00:05:07;99690.06;;;-5.20;54.19
81232;BME280;70703;55.652;37.710;2023-11-21T00:05:19;99729.69;;;-4.98;53.96
81232;BME280;70703;55.652;37.710;2023-11-21T00:05:31;99722.69;;;-4.98;54.04
81232;BME280;70703;55.652;37.710;2023-11-21T00:05:44;99721.78;;;-4.97;53.97
81232;BME280;70703;55.652;37.710;2023-11-21T00:05:56;99718.25;;;-4.96;53.85
81232;BME280;70703;55.652;37.710;2023-11-21T00:06:08;99729.50;;;-4.95;53.84
81232;BME280;70703;55.652;37.710;2023-11-21T00:06:21;99694.75;;;-5.10;53.90
81232;BME280;70703;55.652;37.710;2023-11-21T00:06:33;99718.44;;;-4.99;54.46
81232;BME280;70703;55.652;37.710;2023-11-21T00:06:44;99704.72;;;-5.03;54.07
81232;BME280;70703;55.652;37.710;2023-11-21T00:07:01;99724.56;;;-5.00;54.16
81232;BME280;70703;55.652;37.710;2023-11-21T00:07:14;99722.78;;;-4.99;54.39
81232;BME280;70703;55.652;37.710;2023-11-21T00:07:26;99716.66;;;-4.98;54.46
81232;BME280;70703;55.652;37.710;2023-11-21T00:07:39;99726.91;;;-4.95;54.38
81232;BME280;70703;55.652;37.710;2023-11-21T00:07:52;99715.88;;;-5.01;54.69
81232;BME280;70703;55.652;37.710;2023-11-21T00:08:05;99718.25;;;-4.96;54.53
81232;BME280;70703;55.652;37.710;2023-11-21T00:08:16;99623.56;;;-5.57;54.22
81232;BME280;70703;55.652;37.710;2023-11-21T00:08:28;99719.84;;;-4.93;54.31
81232;BME280;70703;55.652;37.710;2023-11-21T00:08:41;99709.44;;;-5.09;54.20
81232;BME280;70703;55.652;37.710;2023-11-21T00:08:53;99729.22;;;-4.91;54.10
81232;BME280;70703;55.652;37.710;2023-11-21T00:09:05;99728.50;;;-4.93;54.47
81232;BME280;70703;55.652;37.710;2023-11-21T00:09:17;99699.09;;;-5.11;54.42
81232;BME280;70703;55.652;37.710;2023-11-21T00:09:31;99725.69;;;-4.90;54.42
81232;BME280;70703;55.652;37.710;2023-11-21T00:09:42;99724.78;;;-4.89;54.15
81232;BME280;70703;55.652;37.710;2023-11-21T00:09:54;99727.38;;;-4.89;54.41
81232;BME280;70703;55.652;37.710;2023-11-21T00:10:10;99723.66;;;-4.85;54.32
81232;BME280;70703;55.652;37.710;2023-11-21T00:10:23;99720.47;;;-4.90;54.02
81232;BME280;70703;55.652;37.710;2023-11-21T00:10:34;99728.97;;;-4.86;54.16
81232;BME280;70703;55.652;37.710;2023-11-21T00:10:45;99732.31;;;-4.84;54.01
81232;BME280;70703;55.652;37.710;2023-11-21T00:10:58;99721.97;;;-4.86;54.07
81232;BME280;70703;55.652;37.710;2023-11-21T00:11:12;99715.16;;;-4.88;53.98
81232;BME280;70703;55.652;37.710;2023-11-21T00:11:25;99727.19;;;-4.86;54.30
81232;BME280;70703;55.652;37.710;2023-11-21T00:11:37;99719.56;;;-4.89;54.37
81232;BME280;70703;55.652;37.710;2023-11-21T00:11:50;99716.84;;;-4.87;54.07
81232;BME280;70703;55.652;37.710;2023-11-21T00:12:02;99728.59;;;-4.80;53.96
81232;BME280;70703;55.652;37.710;2023-11-21T00:12:15;99728.59;;;-4.80;53.81
81232;BME280;70703;55.652;37.710;2023-11-21T00:12:27;99714.16;;;-4.86;54.13
81232;BME280;70703;55.652;37.710;2023-11-21T00:12:40;99729.63;;;-4.82;53.72
81232;BME280;70703;55.652;37.710;2023-11-21T00:12:53;99721.06;;;-4.85;53.77
81232;BME280;70703;55.652;37.710;2023-11-21T00:13:06;99713.47;;;-4.89;53.65
81232;BME280;70703;55.652;37.710;2023-11-21T00:13:20;99705.94;;;-4.94;53.69
81232;BME280;70703;55.652;37.710;2023-11-21T00:13:32;99730.53;;;-4.84;53.96
81232;BME280;70703;55.652;37.710;2023-11-21T00:13:44;99691.84;;;-5.06;54.13
81232;BME280;70703;55.652;37.710;2023-11-21T00:13:57;99722.44;;;-4.93;54.07
81232;BME280;70703;55.652;37.710;2023-11-21T00:14:10;99719.56;;;-4.89;54.02
81232;BME280;70703;55.652;37.710;2023-11-21T00:14:22;99724.50;;;-4.84;54.16
81232;BME280;70703;55.652;37.710;2023-11-21T00:14:35;99724.41;;;-4.82;53.91
81232;BME280;70703;55.652;37.710;2023-11-21T00:14:47;99728.50;;;-4.93;54.15
81232;BME280;70703;55.652;37.710;2023-11-21T00:15:00;99729.59;;;-4.97;53.82
81232;BME280;70703;55.652;37.710;2023-11-21T00:15:14;99731.19;;;-4.94;54.18
81232;BME280;70703;55.652;37.710;2023-11-21T00:15:26;99733.69;;;-4.93;53.67
81232;BME280;70703;55.652;37.710;2023-11-21T00:15:38;99721.78;;;-4.97;53.68
81232;BME280;70703;55.652;37.710;2023-11-21T00:15:51;99727.91;;;-4.98;53.99
81232;BME280;70703;55.652;37.710;2023-11-21T00:16:06;99719.44;;;-5.02;53.54
81232;BME280;70703;55.652;37.710;2023-11-21T00:16:19;99684.66;;;-5.16;53.85
81232;BME280;70703;55.652;37.710;2023-11-21T00:16:32;99720.94;;;-4.97;53.80
81232;BME280;70703;55.652;37.710;2023-11-21T00:16:44;99718.97;;;-4.94;53.82
81232;BME280;70703;55.652;37.710;2023-11-21T00:16:56;99721.41;;;-4.91;54.24
81232;BME280;70703;55.652;37.710;2023-11-21T00:17:10;99726.63;;;-4.91;54.24
81232;BME280;70703;55.652;37.710;2023-11-21T00:17:22;99726.63;;;-4.91;54.11
81232;BME280;70703;55.652;37.710;2023-11-21T00:17:35;99724.88;;;-4.90;54.11
81232;BME280;70703;55.652;37.710;2023-11-21T00:17:47;99673.72;;;-5.23;53.76
81232;BME280;70703;55.652;37.710;2023-11-21T00:18:00;99713.03;;;-4.96;53.86
81232;BME280;70703;55.652;37.710;2023-11-21T00:18:12;99728.31;;;-4.90;54.02
81232;BME280;70703;55.652;37.710;2023-11-21T00:18:26;99720.84;;;-4.96;54.14
81232;BME280;70703;55.652;37.710;2023-11-21T00:18:39;99712.16;;;-4.96;53.79
81232;BME280;70703;55.652;37.710;2023-11-21T00:18:51;99714.69;;;-4.95;54.18
81232;BME280;70703;55.652;37.710;2023-11-21T00:19:03;99726.47;;;-4.88;53.84
81232;BME280;70703;55.652;37.710;2023-11-21T00:19:16;99686.97;;;-5.12;53.88
81232;BME280;70703;55.652;37.710;2023-11-21T00:19:28;99710.22;;;-4.93;53.93
81232;BME280;70703;55.652;37.710;2023-11-21T00:19:41;99721.25;;;-4.88;53.96
81232;BME280;70703;55.652;37.710;2023-11-21T00:19:54;99726.63;;;-4.91;54.39
81232;BME280;70703;55.652;37.710;2023-11-21T00:20:09;99724.00;;;-4.91;54.11
81232;BME280;70703;55.652;37.710;2023-11-21T00:20:24;99717.13;;;-4.92;54.29
81232;BME280;70703;55.652;37.710;2023-11-21T00:20:37;99723.75;;;-4.86;54.44
81232;BME280;70703;55.652;37.710;2023-11-21T00:20:50;99718.88;;;-4.92;54.46
81232;BME280;70703;55.652;37.710;2023-11-21T00:21:03;99717.13;;;-4.92;54.15
81232;BME280;70703;55.652;37.710;2023-11-21T00:21:15;99711.44;;;-4.98;54.37
81232;BME280;70703;55.652;37.710;2023-11-21T00:21:27;99724.78;;;-4.89;54.39
81232;BME280;70703;55.652;37.710;2023-11-21T00:21:39;99719.56;;;-4.89;54.38
81232;BME280;70703;55.652;37.710;2023-11-21T00:21:51;99721.25;;;-4.88;54.35
81232;BME280;70703;55.652;37.710;2023-11-21T00:22:04;99724.69;;;-4.87;53.81
81232;BME280;70703;55.652;37.710;2023-11-21T00:22:16;99721.25;;;-4.88;54.29
81232;BME280;70703;55.652;37.710;2023-11-21T00:22:29;99726.47;;;-4.88;53.77
81232;BME280;70703;55.652;37.710;2023-11-21T00:22:41;99665.91;;;-5.23;54.19
81232;BME280;70703;55.652;37.710;2023-11-21T00:22:54;99723.09;;;-4.90;54.17
81232;BME280;70703;55.652;37.710;2023-11-21T00:23:06;99701.09;;;-5.00;53.98
81232;BME280;70703;55.652;37.710;2023-11-21T00:23:19;99709.94;;;-5.03;53.97
81232;BME280;70703;55.652;37.710;2023-11-21T00:23:32;99720.47;;;-4.90;54.51
81232;BME280;70703;55.652;37.710;2023-11-21T00:23:43;99722.91;;;-4.87;54.22
81232;BME280;70703;55.652;37.710;2023-11-21T00:23:56;99725.50;;;-4.87;54.16
81232;BME280;70703;55.652;37.710;2023-11-21T00:24:09;99717.13;;;-4.92;53.97
81232;BME280;70703;55.652;37.710;2023-11-21T00:24:22;99722.34;;;-4.92;53.77
81232;BME280;70703;55.652;37.710;2023-11-21T00:24:36;99693.59;;;-5.06;53.71
81232;BME280;70703;55.652;37.710;2023-11-21T00:24:49;99720.47;;;-4.90;53.83
81232;BME280;70703;55.652;37.710;2023-11-21T00:25:01;99720.66;;;-4.93;54.05
81232;BME280;70703;55.652;37.710;2023-11-21T00:25:16;99717.88;;;-4.90;53.58
81232;BME280;70703;55.652;37.710;2023-11-21T00:25:29;99710.41;;;-4.96;53.80
81232;BME280;70703;55.652;37.710;2023-11-21T00:25:42;99717.78;;;-4.88;53.34
81232;BME280;70703;55.652;37.710;2023-11-21T00:25:56;99722.91;;;-4.87;53.69
81232;BME280;70703;55.652;37.710;2023-11-21T00:26:08;99665.09;;;-5.24;53.24
81232;BME280;70703;55.652;37.710;2023-11-21T00:26:21;99726.47;;;-4.88;53.60
81232;BME280;70703;55.652;37.710;2023-11-21T00:26:41;99715.25;;;-4.90;53.37
81232;BME280;70703;55.652;37.710;2023-11-21T00:26:53;99715.25;;;-4.90;53.83
81232;BME280;70703;55.652;37.710;2023-11-21T00:27:06;99724.50;;;-4.84;53.44
81232;BME280;70703;55.652;37.710;2023-11-21T00:27:18;99665.00;;;-5.22;53.38
81232;BME280;70703;55.652;37.710;2023-11-21T00:27:31;99722.72;;;-4.84;53.88
81232;BME280;70703;55.652;37.710;2023-11-21T00:27:43;99719.47;;;-4.87;53.87
81232;BME280;70703;55.652;37.710;2023-11-21T00:27:56;99726.28;;;-4.85;54.05
81232;BME280;70703;55.652;37.710;2023-11-21T00:28:09;99722.72;;;-4.84;53.73
81232;BME280;70703;55.652;37.710;2023-11-21T00:28:20;99690.84;;;-5.03;54.09
81232;BME280;70703;55.652;37.710;2023-11-21T00:28:34;99716.03;;;-4.88;53.76
81232;BME280;70703;55.652;37.710;2023-11-21T00:28:47;99710.97;;;-4.91;53.68
81232;BME280;70703;55.652;37.710;2023-11-21T00:29:02;99721.06;;;-4.85;53.94
81232;BME280;70703;55.652;37.710;2023-11-21T00:29:14;99728.97;;;-4.86;53.82
81232;BME280;70703;55.652;37.710;2023-11-21T00:29:28;99727.19;;;-4.86;54.20
81232;BME280;70703;55.652;37.710;2023-11-21T00:29:41;99688.03;;;-5.14;54.11
81232;BME280;70703;55.652;37.710;2023-11-21T00:29:53;99723.84;;;-4.88;53.90
81232;BME280;70703;55.652;37.710;2023-11-21T00:30:07;99718.53;;;-4.86;54.01
81232;BME280;70703;55.652;37.710;2023-11-21T00:30:20;99715.25;;;-4.90;53.97
81232;BME280;70703;55.652;37.710;2023-11-21T00:30:32;99724.59;;;-4.86;54.07
81232;BME280;70703;55.652;37.710;2023-11-21T00:30:45;99724.59;;;-4.86;53.76
81232;BME280;70703;55.652;37.710;2023-11-21T00:30:58;99701.72;;;-4.96;53.87
81232;BME280;70703;55.652;37.710;2023-11-21T00:31:09;99715.94;;;-4.86;53.88
81232;BME280;70703;55.652;37.710;2023-11-21T00:31:22;99705.84;;;-4.92;53.88
81232;BME280;70703;55.652;37.710;2023-11-21T00:31:34;99729.81;;;-4.86;53.65
81232;BME280;70703;55.652;37.710;2023-11-21T00:31:47;99725.25;;;-4.82;53.75
81232;BME280;70703;55.652;37.710;2023-11-21T00:32:00;99727.94;;;-4.84;53.44
81232;BME280;70703;55.652;37.710;2023-11-21T00:32:12;99727.94;;;-4.84;53.94
81232;BME280;70703;55.652;37.710;2023-11-21T00:32:25;99727.94;;;-4.84;53.75
81232;BME280;70703;55.652;37.710;2023-11-21T00:32:38;99722.72;;;-4.84;53.37
81232;BME280;70703;55.652;37.710;2023-11-21T00:32:50;99727.00;;;-4.82;53.39
81232;BME280;70703;55.652;37.710;2023-11-21T00:33:03;99727.94;;;-4.84;53.79
81232;BME280;70703;55.652;37.710;2023-11-21T00:33:16;99723.56;;;-4.83;53.58
81232;BME280;70703;55.652;37.710;2023-11-21T00:33:28;99727.94;;;-4.84;53.56
81232;BME280;70703;55.652;37.710;2023-11-21T00:33:40;99640.50;;;-5.34;53.81
81232;BME280;70703;55.652;37.710;2023-11-21T00:33:52;99693.53;;;-5.05;53.30
81232;BME280;70703;55.652;37.710;2023-11-21T00:34:08;99704.25;;;-4.95;53.80
81232;BME280;70703;55.652;37.710;2023-11-21T00:34:19;99727.88;;;-4.82;53.37
81232;BME280;70703;55.652;37.710;2023-11-21T00:34:33;99727.00;;;-4.82;53.52
81232;BME280;70703;55.652;37.710;2023-11-21T00:34:45;99729.63;;;-4.82;53.39
81232;BME280;70703;55.652;37.710;2023-11-21T00:34:57;99728.78;;;-4.83;53.55
81232;BME280;70703;55.652;37.710;2023-11-21T00:35:09;99725.31;;;-4.84;53.96
81232;BME280;70703;55.652;37.710;2023-11-21T00:35:22;99715.16;;;-4.88;53.64
81232;BME280;70703;55.652;37.710;2023-11-21T00:35:34;99727.78;;;-4.80;53.71
81232;BME280;70703;55.652;37.710;2023-11-21T00:35:46;99716.84;;;-4.87;54.04
81232;BME280;70703;55.652;37.710;2023-11-21T00:35:59;99709.84;;;-4.87;54.16
81232;BME280;70703;55.652;37.710;2023-11-21T00:36:12;99719.09;;;-4.81;54.07
81232;BME280;70703;55.652;37.710;2023-11-21T00:36:24;99720.03;;;-4.82;54.17
81232;BME280;70703;55.652;37.710;2023-11-21T00:36:39;99722.56;;;-4.80;53.70
81232;BME280;70703;55.652;37.710;2023-11-21T00:36:52;99734.50;;;-4.76;53.75
81232;BME280;70703;55.652;37.710;2023-11-21T00:37:05;99729.28;;;-4.76;53.64
81232;BME280;70703;55.652;37.710;2023-11-21T00:37:16;99702.22;;;-4.90;53.91
81232;BME280;70703;55.652;37.710;2023-11-21T00:37:28;99721.50;;;-4.78;53.93
81232;BME280;70703;55.652;37.710;2023-11-21T00:37:39;99724.06;;;-4.76;53.91
81232;BME280;70703;55.652;37.710;2023-11-21T00:37:51;99727.59;;;-4.77;53.71
81232;BME280;70703;55.652;37.710;2023-11-21T00:38:04;99723.19;;;-4.77;53.79
81232;BME280;70703;55.652;37.710;2023-11-21T00:38:17;99724.97;;;-4.77;53.69
81232;BME280;70703;55.652;37.710;2023-11-21T00:38:31;99727.59;;;-4.77;53.30
81232;BME280;70703;55.652;37.710;2023-11-21T00:38:43;99719.00;;;-4.79;53.39
81232;BME280;70703;55.652;37.710;2023-11-21T00:38:55;99718.84;;;-4.76;53.46
81232;BME280;70703;55.652;37.710;2023-11-21T00:39:07;99721.69;;;-4.81;52.99
81232;BME280;70703;55.652;37.710;2023-11-21T00:39:19;99698.88;;;-4.92;52.86
81232;BME280;70703;55.652;37.710;2023-11-21T00:39:32;99722.38;;;-4.77;52.99
81232;BME280;70703;55.652;37.710;2023-11-21T00:39:46;99722.47;;;-4.79;53.09
81232;BME280;70703;55.652;37.710;2023-11-21T00:39:57;99724.06;;;-4.76;53.19
81232;BME280;70703;55.652;37.710;2023-11-21T00:40:11;99722.38;;;-4.77;52.99
81232;BME280;70703;55.652;37.710;2023-11-21T00:40:26;99717.16;;;-4.77;52.94
81232;BME280;70703;55.652;37.710;2023-11-21T00:40:39;99719.94;;;-4.80;52.83
81232;BME280;70703;55.652;37.710;2023-11-21T00:40:51;99697.19;;;-4.93;52.93
81232;BME280;70703;55.652;37.710;2023-11-21T00:41:07;99719.00;;;-4.79;52.92
81232;BME280;70703;55.652;37.710;2023-11-21T00:41:19;99724.22;;;-4.79;52.83
81232;BME280;70703;55.652;37.710;2023-11-21T00:41:31;99722.72;;;-4.84;52.90
81232;BME280;70703;55.652;37.710;2023-11-21T00:41:42;99712.66;;;-4.90;53.13
81232;BME280;70703;55.652;37.710;2023-11-21T00:41:55;99720.88;;;-4.81;52.93
81232;BME280;70703;55.652;37.710;2023-11-21T00:42:09;99719.19;;;-4.82;53.25
81232;BME280;70703;55.652;37.710;2023-11-21T00:42:22;99710.03;;;-4.90;52.99
81232;BME280;70703;55.652;37.710;2023-11-21T00:42:33;99710.81;;;-4.88;53.11
81232;BME280;70703;55.652;37.710;2023-11-21T00:42:45;99716.03;;;-4.88;53.38
81232;BME280;70703;55.652;37.710;2023-11-21T00:42:58;99716.75;;;-4.86;53.12
81232;BME280;70703;55.652;37.710;2023-11-21T00:43:10;99717.50;;;-4.84;53.41
81232;BME280;70703;55.652;37.710;2023-11-21T00:43:22;99715.84;;;-4.85;53.00
81232;BME280;70703;55.652;37.710;2023-11-21T00:43:35;99714.34;;;-4.89;53.42
81232;BME280;70703;55.652;37.710;2023-11-21T00:43:48;99708.94;;;-4.86;53.41
81232;BME280;70703;55.652;37.710;2023-11-21T00:44:00;99705.50;;;-4.86;52.84
81232;BME280;70703;55.652;37.710;2023-11-21T00:44:12;99708.19;;;-4.88;53.31
81232;BME280;70703;55.652;37.710;2023-11-21T00:44:24;99721.06;;;-4.85;52.95
81232;BME280;70703;55.652;37.710;2023-11-21T00:44:37;99691.47;;;-4.99;52.83
81232;BME280;70703;55.652;37.710;2023-11-21T00:44:50;99693.81;;;-4.95;52.71
81232;BME280;70703;55.652;37.710;2023-11-21T00:45:02;99705.59;;;-4.88;53.13
81232;BME280;70703;55.652;37.710;2023-11-21T00:45:15;99705.94;;;-4.94;52.86
81232;BME280;70703;55.652;37.710;2023-11-21T00:45:28;99708.19;;;-4.88;52.92
81232;BME280;70703;55.652;37.710;2023-11-21T00:45:40;99709.94;;;-4.88;53.26
81232;BME280;70703;55.652;37.710;2023-11-21T00:45:52;99715.25;;;-4.90;52.95
81232;BME280;70703;55.652;37.710;2023-11-21T00:46:06;99713.47;;;-4.89;53.19
81232;BME280;70703;55.652;37.710;2023-11-21T00:46:18;99706.84;;;-4.95;53.04
81232;BME280;70703;55.652;37.710;2023-11-21T00:46:31;99709.47;;;-4.95;53.46
81232;BME280;70703;55.652;37.710;2023-11-21T00:46:42;99702.41;;;-4.93;53.19
81232;BME280;70703;55.652;37.710;2023-11-21T00:46:55;99716.19;;;-4.91;53.36
81232;BME280;70703;55.652;37.710;2023-11-21T00:47:07;99719.75;;;-4.92;53.19
81232;BME280;70703;55.652;37.710;2023-11-21T00:47:19;99705.19;;;-4.96;53.25
81232;BME280;70703;55.652;37.710;2023-11-21T00:47:33;99712.84;;;-4.93;52.80
81232;BME280;70703;55.652;37.710;2023-11-21T00:47:45;99720.56;;;-4.91;53.15
81232;BME280;70703;55.652;37.710;2023-11-21T00:47:58;99716.38;;;-4.94;52.87
81232;BME280;70703;55.652;37.710;2023-11-21T00:48:13;99702.09;;;-5.03;53.38
81232;BME280;70703;55.652;37.710;2023-11-21T00:48:25;99713.66;;;-4.92;53.24
81232;BME280;70703;55.652;37.710;2023-11-21T00:48:38;99705.19;;;-4.96;53.49
81232;BME280;70703;55.652;37.710;2023-11-21T00:48:50;99720.66;;;-4.93;53.49
81232;BME280;70703;55.652;37.710;2023-11-21T00:49:04;99715.72;;;-4.97;53.36
81232;BME280;70703;55.652;37.710;2023-11-21T00:49:16;99709.66;;;-4.98;53.66
81232;BME280;70703;55.652;37.710;2023-11-21T00:49:27;99713.13;;;-4.97;53.76
81232;BME280;70703;55.652;37.710;2023-11-21T00:49:40;99713.94;;;-4.97;53.63
81232;BME280;70703;55.652;37.710;2023-11-21T00:49:54;99710.50;;;-4.97;53.52
81232;BME280;70703;55.652;37.710;2023-11-21T00:50:08;99713.03;;;-4.96;53.36
81232;BME280;70703;55.652;37.710;2023-11-21T00:50:21;99709.94;;;-5.03;53.07
81232;BME280;70703;55.652;37.710;2023-11-21T00:50:33;99670.13;;;-5.21;53.13
81232;BME280;70703;55.652;37.710;2023-11-21T00:50:45;99691.94;;;-5.07;53.47
81232;BME280;70703;55.652;37.710;2023-11-21T00:50:57;99657.03;;;-5.35;53.45
81232;BME280;70703;55.652;37.710;2023-11-21T00:51:08;99681.41;;;-5.20;53.34
81232;BME280;70703;55.652;37.710;2023-11-21T00:51:20;99696.41;;;-5.09;53.15
81232;BME280;70703;55.652;37.710;2023-11-21T00:51:32;99715.72;;;-4.97;53.25
81232;BME280;70703;55.652;37.710;2023-11-21T00:51:44;99712.16;;;-4.96;53.19
81232;BME280;70703;55.652;37.710;2023-11-21T00:51:57;99709.66;;;-4.98;53.28
81232;BME280;70703;55.652;37.710;2023-11-21T00:52:10;99711.63;;;-5.02;53.39
81232;BME280;70703;55.652;37.710;2023-11-21T00:52:22;99718.66;;;-5.04;53.01
81232;BME280;70703;55.652;37.710;2023-11-21T00:52:34;99714.41;;;-5.05;53.51
81232;BME280;70703;55.652;37.710;2023-11-21T00:52:48;99716.91;;;-5.03;53.29
81232;BME280;70703;55.652;37.710;2023-11-21T00:52:59;99703.31;;;-5.08;53.26
81232;BME280;70703;55.652;37.710;2023-11-21T00:53:13;99711.72;;;-5.03;53.34
81232;BME280;70703;55.652;37.710;2023-11-21T00:53:26;99720.25;;;-5.01;52.97
81232;BME280;70703;55.652;37.710;2023-11-21T00:53:39;99716.91;;;-5.03;53.19
81232;BME280;70703;55.652;37.710;2023-11-21T00:53:51;99710.03;;;-5.04;53.33
81232;BME280;70703;55.652;37.710;2023-11-21T00:54:06;99711.63;;;-5.02;53.05
81232;BME280;70703;55.652;37.710;2023-11-21T00:54:18;99716.06;;;-5.04;53.01
81232;BME280;70703;55.652;37.710;2023-11-21T00:54:30;99715.22;;;-5.04;53.07
81232;BME280;70703;55.652;37.710;2023-11-21T00:54:41;99716.06;;;-5.04;53.26
81232;BME280;70703;55.652;37.710;2023-11-21T00:54:53;99714.31;;;-5.03;53.20
81232;BME280;70703;55.652;37.710;2023-11-21T00:55:06;99703.31;;;-5.08;53.07
81232;BME280;70703;55.652;37.710;2023-11-21T00:55:19;99715.06;;;-5.01;53.29
81232;BME280;70703;55.652;37.710;2023-11-21T00:55:32;99709.19;;;-5.05;52.88
81232;BME280;70703;55.652;37.710;2023-11-21T00:55:44;99709.84;;;-5.01;53.12
81232;BME280;70703;55.652;37.710;2023-11-21T00:55:57;99698.09;;;-5.08;53.34
81232;BME280;70703;55.652;37.710;2023-11-21T00:56:09;99705.91;;;-5.08;53.37
81232;BME280;70703;55.652;37.710;2023-11-21T00:56:21;99713.56;;;-5.05;53.20
81232;BME280;70703;55.652;37.710;2023-11-21T00:56:33;99714.22;;;-5.02;53.34
81232;BME280;70703;55.652;37.710;2023-11-21T00:56:45;99709.09;;;-5.03;52.93
81232;BME280;70703;55.652;37.710;2023-11-21T00:56:58;99713.38;;;-5.02;53.20
81232;BME280;70703;55.652;37.710;2023-11-21T00:57:10;99713.47;;;-5.04;53.21
81232;BME280;70703;55.652;37.710;2023-11-21T00:57:23;99720.25;;;-5.01;53.32
81232;BME280;70703;55.652;37.710;2023-11-21T00:57:36;99709.84;;;-5.01;52.89
81232;BME280;70703;55.652;37.710;2023-11-21T00:57:49;99710.94;;;-5.05;53.47
81232;BME280;70703;55.652;37.710;2023-11-21T00:58:02;99655.63;;;-5.41;53.27
81232;BME280;70703;55.652;37.710;2023-11-21T00:58:14;99706.66;;;-5.06;53.47
81232;BME280;70703;55.652;37.710;2023-11-21T00:58:26;99715.81;;;-4.99;53.50
81232;BME280;70703;55.652;37.710;2023-11-21T00:58:38;99716.84;;;-5.02;53.32
81232;BME280;70703;55.652;37.710;2023-11-21T00:58:50;99712.63;;;-5.04;53.14
81232;BME280;70703;55.652;37.710;2023-11-21T00:59:04;99715.06;;;-5.01;53.51
81232;BME280;70703;55.652;37.710;2023-11-21T00:59:16;99721.09;;;-5.01;53.21
81232;BME280;70703;55.652;37.710;2023-11-21T00:59:28;99713.28;;;-5.01;53.26
81232;BME280;70703;55.652;37.710;2023-11-21T00:59:42;99723.69;;;-5.01;53.42
81232;BME280;70703;55.652;37.710;2023-11-21T00:59:54;99719.44;;;-5.02;53.52
81232;BME280;70703;55.652;37.710;2023-11-21T01:00:08;99721.19;;;-5.02;53.69
81232;BME280;70703;55.652;37.710;2023-11-21T01:00:24;99720.34;;;-5.03;53.60
81232;BME280;70703;55.652;37.710;2023-11-21T01:00:37;99717.66;;;-5.01;53.48
81232;BME280;70703;55.652;37.710;2023-11-21T01:00:50;99722.03;;;-5.02;53.04
81232;BME280;70703;55.652;37.710;2023-11-21T01:01:02;99717.66;;;-5.01;53.58
81232;BME280;70703;55.652;37.710;2023-11-21T01:01:15;99717.66;;;-5.01;53.33
81232;BME280;70703;55.652;37.710;2023-11-21T01:01:26;99720.34;;;-5.03;53.75
81232;BME280;70703;55.652;37.710;2023-11-21T01:01:37;99716.91;;;-5.03;53.69
81232;BME280;70703;55.652;37.710;2023-11-21T01:01:51;99723.69;;;-5.01;53.43
81232;BME280;70703;55.652;37.710;2023-11-21T01:02:05;99710.19;;;-5.07;53.45
81232;BME280;70703;55.652;37.710;2023-11-21T01:02:17;99720.25;;;-5.01;53.69
81232;BME280;70703;55.652;37.710;2023-11-21T01:02:30;99717.16;;;-5.08;53.76
81232;BME280;70703;55.652;37.710;2023-11-21T01:02:42;99717.94;;;-5.06;53.97
81232;BME280;70703;55.652;37.710;2023-11-21T01:02:54;99715.22;;;-5.04;54.01
81232;BME280;70703;55.652;37.710;2023-11-21T01:03:06;99715.06;;;-5.01;53.89
81232;BME280;70703;55.652;37.710;2023-11-21T01:03:21;99717.66;;;-5.01;54.05
81232;BME280;70703;55.652;37.710;2023-11-21T01:03:34;99681.81;;;-5.28;53.44
81232;BME280;70703;55.652;37.710;2023-11-21T01:03:46;99671.59;;;-5.31;53.67
81232;BME280;70703;55.652;37.710;2023-11-21T01:03:59;99723.63;;;-4.99;53.77
81232;BME280;70703;55.652;37.710;2023-11-21T01:04:12;99723.63;;;-4.99;53.85
81232;BME280;70703;55.652;37.710;2023-11-21T01:04:24;99721.03;;;-4.99;53.75
81232;BME280;70703;55.652;37.710;2023-11-21T01:04:35;99725.28;;;-4.98;53.70
81232;BME280;70703;55.652;37.710;2023-11-21T01:04:48;99715.06;;;-5.01;53.79
81232;BME280;70703;55.652;37.710;2023-11-21T01:04:59;99718.75;;;-5.05;53.71
81232;BME280;70703;55.652;37.710;2023-11-21T01:05:11;99726.06;;;-4.96;53.72
81232;BME280;70703;55.652;37.710;2023-11-21T01:05:25;99718.25;;;-4.96;53.65
81232;BME280;70703;55.652;37.710;2023-11-21T01:05:37;99719.63;;;-5.05;53.76
81232;BME280;70703;55.652;37.710;2023-11-21T01:05:50;99719.41;;;-5.16;53.65
81232;BME280;70703;55.652;37.710;2023-11-21T01:06:03;99725.00;;;-5.08;53.96
81232;BME280;70703;55.652;37.710;2023-11-21T01:06:18;99730.88;;;-5.04;53.73
81232;BME280;70703;55.652;37.710;2023-11-21T01:06:31;99688.53;;;-5.24;53.79